sensor_id;sensor_type;location;lat;lon;timestamp;temperature;humidity
31038;DHT22;17702;47.590;7.666;2024-01-25T00:01:25;12.60;99.90
31038;DHT22;17702;47.590;7.666;2024-01-25T00:03:51;12.60;99.90
31038;DHT22;17702;47.590;7.666;2024-01-25T00:06:17;12.60;99.90
31038;DHT22;17702;47.590;7.666;2024-01-25T00:08:42;12.60;99.90
31038;DHT22;17702;47.590;7.666;2024-01-25T00:11:08;12.60;99.90
31038;DHT22;17702;47.590;7.666;2024-01-25T00:13:35;12.70;99.90
31038;DHT22;17702;47.590;7.666;2024-01-25T00:16:01;12.70;99.90
31038;DHT22;17702;47.590;7.666;2024-01-25T00:18:27;12.70;99.90
31038;DHT22;17702;47.590;7.666;2024-01-25T00:20:55;12.70;99.90
31038;DHT22;17702;47.590;7.666;2024-01-25T00:23:20;12.80;99.90
31038;DHT22;17702;47.590;7.666;2024-01-25T00:25:46;12.80;99.90
31038;DHT22;17702;47.590;7.666;2024-01-25T00:28:11;12.80;99.90
31038;DHT22;17702;47.590;7.666;2024-01-25T00:30:38;12.80;99.90
31038;DHT22;17702;47.590;7.666;2024-01-25T00:33:04;12.80;99.90
31038;DHT22;17702;47.590;7.666;2024-01-25T00:35:30;12.80;99.90
31038;DHT22;17702;47.590;7.666;2024-01-25T00:37:56;12.80;99.90
31038;DHT22;17702;47.590;7.666;2024-01-25T00:40:22;12.80;99.90
31038;DHT22;17702;47.590;7.666;2024-01-25T00:42:48;12.80;99.90
31038;DHT22;17702;47.590;7.666;2024-01-25T00:45:21;12.80;99.90
31038;DHT22;17702;47.590;7.666;2024-01-25T00:47:47;12.80;99.90
31038;DHT22;17702;47.590;7.666;2024-01-25T00:50:13;12.80;99.90
31038;DHT22;17702;47.590;7.666;2024-01-25T00:52:39;12.80;99.90
31038;DHT22;17702;47.590;7.666;2024-01-25T00:55:05;12.70;99.90
31038;DHT22;17702;47.590;7.666;2024-01-25T00:57:31;12.70;99.90
31038;DHT22;17702;47.590;7.666;2024-01-25T00:59:58;12.70;99.90
31038;DHT22;17702;47.590;7.666;2024-01-25T01:02:25;12.70;99.90
31038;DHT22;17702;47.590;7.666;2024-01-25T01:04:56;12.60;99.90
31038;DHT22;17702;47.590;7.666;2024-01-25T01:07:22;12.60;99.90
31038;DHT22;17702;47.590;7.666;2024-01-25T01:09:48;12.60;99.90
31038;DHT22;17702;47.590;7.666;2024-01-25T01:12:13;12.60;99.90
31038;DHT22;17702;47.590;7.666;2024-01-25T01:14:39;12.60;99.90
31038;DHT22;17702;47.590;7.666;2024-01-25T01:17:05;12.60;99.90
31038;DHT22;17702;47.590;7.666;2024-01-25T01:19:31;12.60;99.90
31038;DHT22;17702;47.590;7.666;2024-01-25T01:21:56;12.60;99.90
31038;DHT22;17702;47.590;7.666;2024-01-25T01:24:22;12.60;99.90
31038;DHT22;17702;47.590;7.666;2024-01-25T01:26:48;12.60;99.90
31038;DHT22;17702;47.590;7.666;2024-01-25T01:29:14;12.50;99.90
31038;DHT22;17702;47.590;7.666;2024-01-25T01:31:39;12.60;99.90
31038;DHT22;17702;47.590;7.666;2024-01-25T01:34:05;12.50;99.90
31038;DHT22;17702;47.590;7.666;2024-01-25T01:36:31;12.60;99.90
31038;DHT22;17702;47.590;7.666;2024-01-25T01:38:56;12.50;99.90
31038;DHT22;17702;47.590;7.666;2024-01-25T01:41:22;12.50;99.90
31038;DHT22;17702;47.590;7.666;2024-01-25T01:43:51;12.50;99.90
31038;DHT22;17702;47.590;7.666;2024-01-25T01:48:52;12.50;99.90
31038;DHT22;17702;47.590;7.666;2024-01-25T01:51:17;12.50;99.90
31038;DHT22;17702;47.590;7.666;2024-01-25T01:53:43;12.50;99.90
31038;DHT22;17702;47.590;7.666;2024-01-25T01:56:09;12.50;99.90
31038;DHT22;17702;47.590;7.666;2024-01-25T01:58:35;12.50;99.90
31038;DHT22;17702;47.590;7.666;2024-01-25T02:01:02;12.50;99.90
31038;DHT22;17702;47.590;7.666;2024-01-25T02:03:27;12.50;99.90
31038;DHT22;17702;47.590;7.666;2024-01-25T02:05:53;12.50;99.90
31038;DHT22;17702;47.590;7.666;2024-01-25T02:08:19;12.50;99.90
31038;DHT22;17702;47.590;7.666;2024-01-25T02:10:45;12.60;99.90
31038;DHT22;17702;47.590;7.666;2024-01-25T02:13:10;12.60;99.90
31038;DHT22;17702;47.590;7.666;2024-01-25T02:15:36;12.60;99.90
31038;DHT22;17702;47.590;7.666;2024-01-25T02:18:01;12.60;99.90
31038;DHT22;17702;47.590;7.666;2024-01-25T02:20:28;12.60;99.90
31038;DHT22;17702;47.590;7.666;2024-01-25T02:22:53;12.60;99.90
31038;DHT22;17702;47.590;7.666;2024-01-25T02:25:19;12.60;99.90
31038;DHT22;17702;47.590;7.666;2024-01-25T02:27:45;12.60;99.90
31038;DHT22;17702;47.590;7.666;2024-01-25T02:30:10;12.60;99.90
31038;DHT22;17702;47.590;7.666;2024-01-25T02:32:36;12.60;99.90
31038;DHT22;17702;47.590;7.666;2024-01-25T02:35:02;12.60;99.90
31038;DHT22;17702;47.590;7.666;2024-01-25T02:37:29;12.60;99.90
31038;DHT22;17702;47.590;7.666;2024-01-25T02:39:55;12.60;99.90
31038;DHT22;17702;47.590;7.666;2024-01-25T02:42:22;12.60;99.90
31038;DHT22;17702;47.590;7.666;2024-01-25T02:44:47;12.60;99.90
31038;DHT22;17702;47.590;7.666;2024-01-25T02:47:14;12.60;99.90
31038;DHT22;17702;47.590;7.666;2024-01-25T02:49:41;12.60;99.90
31038;DHT22;17702;47.590;7.666;2024-01-25T02:52:06;12.60;99.90
31038;DHT22;17702;47.590;7.666;2024-01-25T02:54:34;12.60;99.90
31038;DHT22;17702;47.590;7.666;2024-01-25T02:57:02;12.50;99.90
31038;DHT22;17702;47.590;7.666;2024-01-25T02:59:27;12.60;99.90
31038;DHT22;17702;47.590;7.666;2024-01-25T03:01:54;12.60;99.90
31038;DHT22;17702;47.590;7.666;2024-01-25T03:04:19;12.50;99.90
31038;DHT22;17702;47.590;7.666;2024-01-25T03:06:45;12.50;99.90
31038;DHT22;17702;47.590;7.666;2024-01-25T03:09:11;12.50;99.90
31038;DHT22;17702;47.590;7.666;2024-01-25T03:11:36;12.50;99.90
31038;DHT22;17702;47.590;7.666;2024-01-25T03:14:02;12.50;99.90
31038;DHT22;17702;47.590;7.666;2024-01-25T03:16:27;12.50;99.90
31038;DHT22;17702;47.590;7.666;2024-01-25T03:18:53;12.50;99.90
31038;DHT22;17702;47.590;7.666;2024-01-25T03:21:19;12.40;99.90
31038;DHT22;17702;47.590;7.666;2024-01-25T03:23:45;12.40;99.90
31038;DHT22;17702;47.590;7.666;2024-01-25T03:26:10;12.40;99.90
31038;DHT22;17702;47.590;7.666;2024-01-25T03:28:36;12.40;99.90
31038;DHT22;17702;47.590;7.666;2024-01-25T03:31:02;12.40;99.90
31038;DHT22;17702;47.590;7.666;2024-01-25T03:33:28;12.40;99.90
31038;DHT22;17702;47.590;7.666;2024-01-25T03:35:54;12.30;99.90
31038;DHT22;17702;47.590;7.666;2024-01-25T03:38:20;12.30;99.90
31038;DHT22;17702;47.590;7.666;2024-01-25T03:40:45;12.30;99.90
31038;DHT22;17702;47.590;7.666;2024-01-25T03:43:11;12.30;99.90
31038;DHT22;17702;47.590;7.666;2024-01-25T03:45:37;12.30;99.90
31038;DHT22;17702;47.590;7.666;2024-01-25T03:48:03;12.30;99.90
31038;DHT22;17702;47.590;7.666;2024-01-25T03:50:28;12.30;99.90
31038;DHT22;17702;47.590;7.666;2024-01-25T03:52:54;12.30;99.90
31038;DHT22;17702;47.590;7.666;2024-01-25T03:55:20;12.30;99.90
31038;DHT22;17702;47.590;7.666;2024-01-25T03:57:45;12.30;99.90
31038;DHT22;17702;47.590;7.666;2024-01-25T04:00:11;12.30;99.90
31038;DHT22;17702;47.590;7.666;2024-01-25T04:02:37;12.30;99.90
31038;DHT22;17702;47.590;7.666;2024-01-25T04:05:04;12.30;99.90
31038;DHT22;17702;47.590;7.666;2024-01-25T04:07:30;12.30;99.90
31038;DHT22;17702;47.590;7.666;2024-01-25T04:09:55;12.30;99.90
31038;DHT22;17702;47.590;7.666;2024-01-25T04:12:21;12.30;99.90
31038;DHT22;17702;47.590;7.666;2024-01-25T04:14:46;12.40;99.90
31038;DHT22;17702;47.590;7.666;2024-01-25T04:17:12;12.30;99.90
31038;DHT22;17702;47.590;7.666;2024-01-25T04:19:38;12.40;99.90
31038;DHT22;17702;47.590;7.666;2024-01-25T04:22:03;12.40;99.90
31038;DHT22;17702;47.590;7.666;2024-01-25T04:24:29;12.30;99.90
31038;DHT22;17702;47.590;7.666;2024-01-25T04:26:55;12.30;99.90
31038;DHT22;17702;47.590;7.666;2024-01-25T04:29:20;12.40;99.90
31038;DHT22;17702;47.590;7.666;2024-01-25T04:31:46;12.40;99.90
31038;DHT22;17702;47.590;7.666;2024-01-25T04:34:14;12.40;99.90
31038;DHT22;17702;47.590;7.666;2024-01-25T04:36:40;12.40;99.90
31038;DHT22;17702;47.590;7.666;2024-01-25T04:39:05;12.40;99.90
31038;DHT22;17702;47.590;7.666;2024-01-25T04:41:31;12.40;99.90
31038;DHT22;17702;47.590;7.666;2024-01-25T04:43:57;12.40;99.90
31038;DHT22;17702;47.590;7.666;2024-01-25T04:46:22;12.40;99.90
31038;DHT22;17702;47.590;7.666;2024-01-25T04:48:48;12.40;99.90
31038;DHT22;17702;47.590;7.666;2024-01-25T04:51:18;12.40;99.90
31038;DHT22;17702;47.590;7.666;2024-01-25T04:53:44;12.50;99.90
31038;DHT22;17702;47.590;7.666;2024-01-25T04:56:10;12.50;99.90
31038;DHT22;17702;47.590;7.666;2024-01-25T04:58:35;12.40;99.90
31038;DHT22;17702;47.590;7.666;2024-01-25T05:01:01;12.50;99.90
31038;DHT22;17702;47.590;7.666;2024-01-25T05:03:26;12.50;99.90
31038;DHT22;17702;47.590;7.666;2024-01-25T05:05:52;12.50;99.90
31038;DHT22;17702;47.590;7.666;2024-01-25T05:08:18;12.50;99.90
31038;DHT22;17702;47.590;7.666;2024-01-25T05:10:43;12.40;99.90
31038;DHT22;17702;47.590;7.666;2024-01-25T05:13:09;12.50;99.90
31038;DHT22;17702;47.590;7.666;2024-01-25T05:15:35;12.40;99.90
31038;DHT22;17702;47.590;7.666;2024-01-25T05:18:01;12.50;99.90
31038;DHT22;17702;47.590;7.666;2024-01-25T05:20:27;12.50;99.90
31038;DHT22;17702;47.590;7.666;2024-01-25T05:22:58;12.50;99.90
31038;DHT22;17702;47.590;7.666;2024-01-25T05:25:24;12.50;99.90
31038;DHT22;17702;47.590;7.666;2024-01-25T05:27:51;12.50;99.90
31038;DHT22;17702;47.590;7.666;2024-01-25T05:30:17;12.50;99.90
31038;DHT22;17702;47.590;7.666;2024-01-25T05:32:43;12.50;99.90
31038;DHT22;17702;47.590;7.666;2024-01-25T05:35:08;12.50;99.90
31038;DHT22;17702;47.590;7.666;2024-01-25T05:37:34;12.40;99.90
31038;DHT22;17702;47.590;7.666;2024-01-25T05:40:00;12.40;99.90
31038;DHT22;17702;47.590;7.666;2024-01-25T05:42:25;12.40;99.90
31038;DHT22;17702;47.590;7.666;2024-01-25T05:44:51;12.40;99.90
31038;DHT22;17702;47.590;7.666;2024-01-25T05:47:17;12.40;99.90
31038;DHT22;17702;47.590;7.666;2024-01-25T05:49:42;12.40;99.90
31038;DHT22;17702;47.590;7.666;2024-01-25T05:52:08;12.40;99.90
31038;DHT22;17702;47.590;7.666;2024-01-25T05:54:33;12.40;99.90
31038;DHT22;17702;47.590;7.666;2024-01-25T05:56:59;12.40;99.90
31038;DHT22;17702;47.590;7.666;2024-01-25T05:59:24;12.40;99.90
31038;DHT22;17702;47.590;7.666;2024-01-25T06:01:50;12.40;99.90
31038;DHT22;17702;47.590;7.666;2024-01-25T06:04:16;12.30;99.90
31038;DHT22;17702;47.590;7.666;2024-01-25T06:06:41;12.40;99.90
31038;DHT22;17702;47.590;7.666;2024-01-25T06:09:07;12.40;99.90
31038;DHT22;17702;47.590;7.666;2024-01-25T06:11:34;12.30;99.90
31038;DHT22;17702;47.590;7.666;2024-01-25T06:14:01;12.30;99.90
31038;DHT22;17702;47.590;7.666;2024-01-25T06:16:26;12.40;99.90
31038;DHT22;17702;47.590;7.666;2024-01-25T06:18:52;12.40;99.90
31038;DHT22;17702;47.590;7.666;2024-01-25T06:21:18;12.40;99.90
31038;DHT22;17702;47.590;7.666;2024-01-25T06:23:43;12.40;99.90
31038;DHT22;17702;47.590;7.666;2024-01-25T06:26:09;12.40;99.90
31038;DHT22;17702;47.590;7.666;2024-01-25T06:28:34;12.40;99.90
31038;DHT22;17702;47.590;7.666;2024-01-25T06:31:01;12.40;99.90
31038;DHT22;17702;47.590;7.666;2024-01-25T06:33:26;12.40;99.90
31038;DHT22;17702;47.590;7.666;2024-01-25T06:35:53;12.40;99.90
31038;DHT22;17702;47.590;7.666;2024-01-25T06:38:19;12.40;99.90
31038;DHT22;17702;47.590;7.666;2024-01-25T06:40:44;12.50;99.90
31038;DHT22;17702;47.590;7.666;2024-01-25T06:43:10;12.40;99.90
31038;DHT22;17702;47.590;7.666;2024-01-25T06:45:37;12.40;99.90
31038;DHT22;17702;47.590;7.666;2024-01-25T06:48:06;12.40;99.90
31038;DHT22;17702;47.590;7.666;2024-01-25T06:50:31;12.40;99.90
31038;DHT22;17702;47.590;7.666;2024-01-25T06:52:57;12.40;99.90
31038;DHT22;17702;47.590;7.666;2024-01-25T06:55:22;12.30;99.90
31038;DHT22;17702;47.590;7.666;2024-01-25T06:57:48;12.30;99.90
31038;DHT22;17702;47.590;7.666;2024-01-25T07:00:14;12.30;99.90
31038;DHT22;17702;47.590;7.666;2024-01-25T07:02:41;12.30;99.90
31038;DHT22;17702;47.590;7.666;2024-01-25T07:05:08;12.30;99.90
31038;DHT22;17702;47.590;7.666;2024-01-25T07:07:34;12.30;99.90
31038;DHT22;17702;47.590;7.666;2024-01-25T07:09:59;12.30;99.90
31038;DHT22;17702;47.590;7.666;2024-01-25T07:12:25;12.30;99.90
31038;DHT22;17702;47.590;7.666;2024-01-25T07:14:51;12.30;99.90
31038;DHT22;17702;47.590;7.666;2024-01-25T07:17:17;12.30;99.90
31038;DHT22;17702;47.590;7.666;2024-01-25T07:19:42;12.30;99.90
31038;DHT22;17702;47.590;7.666;2024-01-25T07:22:08;12.30;99.90
31038;DHT22;17702;47.590;7.666;2024-01-25T07:24:33;12.30;99.90
31038;DHT22;17702;47.590;7.666;2024-01-25T07:26:59;12.30;99.90
31038;DHT22;17702;47.590;7.666;2024-01-25T07:29:25;12.30;99.90
31038;DHT22;17702;47.590;7.666;2024-01-25T07:31:51;12.30;99.90
31038;DHT22;17702;47.590;7.666;2024-01-25T07:34:16;12.30;99.90
31038;DHT22;17702;47.590;7.666;2024-01-25T07:36:42;12.30;99.90
31038;DHT22;17702;47.590;7.666;2024-01-25T07:39:08;12.30;99.90
31038;DHT22;17702;47.590;7.666;2024-01-25T07:41:36;12.30;99.90
31038;DHT22;17702;47.590;7.666;2024-01-25T07:44:02;12.30;99.90
31038;DHT22;17702;47.590;7.666;2024-01-25T07:46:27;12.30;99.90
31038;DHT22;17702;47.590;7.666;2024-01-25T07:48:53;12.30;99.90
31038;DHT22;17702;47.590;7.666;2024-01-25T07:51:18;12.30;99.90
31038;DHT22;17702;47.590;7.666;2024-01-25T07:53:44;12.30;99.90
31038;DHT22;17702;47.590;7.666;2024-01-25T07:56:10;12.30;99.90
31038;DHT22;17702;47.590;7.666;2024-01-25T07:58:36;12.30;99.90
31038;DHT22;17702;47.590;7.666;2024-01-25T08:01:03;12.30;99.90
31038;DHT22;17702;47.590;7.666;2024-01-25T08:03:29;12.30;99.90
31038;DHT22;17702;47.590;7.666;2024-01-25T08:05:55;12.30;99.90
31038;DHT22;17702;47.590;7.666;2024-01-25T08:08:21;12.30;99.90
31038;DHT22;17702;47.590;7.666;2024-01-25T08:10:46;12.30;99.90
31038;DHT22;17702;47.590;7.666;2024-01-25T08:13:12;12.30;99.90
31038;DHT22;17702;47.590;7.666;2024-01-25T08:15:38;12.30;99.90
31038;DHT22;17702;47.590;7.666;2024-01-25T08:18:04;12.20;99.90
31038;DHT22;17702;47.590;7.666;2024-01-25T08:20:30;12.30;99.90
31038;DHT22;17702;47.590;7.666;2024-01-25T08:22:56;12.30;99.90
31038;DHT22;17702;47.590;7.666;2024-01-25T08:25:22;12.30;99.90
31038;DHT22;17702;47.590;7.666;2024-01-25T08:27:49;12.10;99.90
31038;DHT22;17702;47.590;7.666;2024-01-25T08:30:14;12.30;99.90
31038;DHT22;17702;47.590;7.666;2024-01-25T08:32:40;12.30;99.90
31038;DHT22;17702;47.590;7.666;2024-01-25T08:35:06;12.30;99.90
31038;DHT22;17702;47.590;7.666;2024-01-25T08:37:32;12.30;99.90
31038;DHT22;17702;47.590;7.666;2024-01-25T08:39:58;12.30;99.90
31038;DHT22;17702;47.590;7.666;2024-01-25T08:42:23;12.20;99.90
31038;DHT22;17702;47.590;7.666;2024-01-25T08:44:49;12.20;99.90
31038;DHT22;17702;47.590;7.666;2024-01-25T08:47:18;12.20;99.90
31038;DHT22;17702;47.590;7.666;2024-01-25T08:49:44;12.20;99.90
31038;DHT22;17702;47.590;7.666;2024-01-25T08:52:09;12.20;99.90
31038;DHT22;17702;47.590;7.666;2024-01-25T08:54:35;12.20;99.90
31038;DHT22;17702;47.590;7.666;2024-01-25T08:57:04;12.20;99.90
31038;DHT22;17702;47.590;7.666;2024-01-25T08:59:30;12.20;99.90
31038;DHT22;17702;47.590;7.666;2024-01-25T09:01:58;12.10;99.90
31038;DHT22;17702;47.590;7.666;2024-01-25T09:04:24;12.20;99.90
31038;DHT22;17702;47.590;7.666;2024-01-25T09:06:49;12.20;99.90
31038;DHT22;17702;47.590;7.666;2024-01-25T09:09:15;12.10;99.90
31038;DHT22;17702;47.590;7.666;2024-01-25T09:11:40;12.20;99.90
31038;DHT22;17702;47.590;7.666;2024-01-25T09:14:06;12.10;99.90
31038;DHT22;17702;47.590;7.666;2024-01-25T09:16:33;12.10;99.90
31038;DHT22;17702;47.590;7.666;2024-01-25T09:18:58;12.10;99.90
31038;DHT22;17702;47.590;7.666;2024-01-25T09:21:24;12.10;99.90
31038;DHT22;17702;47.590;7.666;2024-01-25T09:23:50;12.10;99.90
31038;DHT22;17702;47.590;7.666;2024-01-25T09:26:15;12.10;99.90
31038;DHT22;17702;47.590;7.666;2024-01-25T09:28:41;12.30;99.90
31038;DHT22;17702;47.590;7.666;2024-01-25T09:31:06;12.40;99.90
31038;DHT22;17702;47.590;7.666;2024-01-25T09:33:32;12.50;99.90
31038;DHT22;17702;47.590;7.666;2024-01-25T09:35:59;12.50;99.90
31038;DHT22;17702;47.590;7.666;2024-01-25T09:38:24;12.50;99.90
31038;DHT22;17702;47.590;7.666;2024-01-25T09:40:50;12.50;99.90
31038;DHT22;17702;47.590;7.666;2024-01-25T09:43:17;12.50;99.90
31038;DHT22;17702;47.590;7.666;2024-01-25T09:45:43;12.70;99.90
31038;DHT22;17702;47.590;7.666;2024-01-25T09:48:09;13.00;99.90
31038;DHT22;17702;47.590;7.666;2024-01-25T09:50:36;13.50;99.90
31038;DHT22;17702;47.590;7.666;2024-01-25T09:53:03;14.00;99.90
31038;DHT22;17702;47.590;7.666;2024-01-25T09:55:32;14.30;99.90
31038;DHT22;17702;47.590;7.666;2024-01-25T09:58:04;14.30;99.90
31038;DHT22;17702;47.590;7.666;2024-01-25T10:00:33;14.20;99.90
31038;DHT22;17702;47.590;7.666;2024-01-25T10:02:58;13.90;99.90
31038;DHT22;17702;47.590;7.666;2024-01-25T10:05:24;13.70;99.90
31038;DHT22;17702;47.590;7.666;2024-01-25T10:07:49;13.60;99.90
31038;DHT22;17702;47.590;7.666;2024-01-25T10:10:15;13.40;99.90
31038;DHT22;17702;47.590;7.666;2024-01-25T10:12:43;13.30;99.90
31038;DHT22;17702;47.590;7.666;2024-01-25T10:15:09;13.20;99.90
31038;DHT22;17702;47.590;7.666;2024-01-25T10:17:35;13.10;99.90
31038;DHT22;17702;47.590;7.666;2024-01-25T10:20:00;13.00;99.90
31038;DHT22;17702;47.590;7.666;2024-01-25T10:22:26;13.00;99.90
31038;DHT22;17702;47.590;7.666;2024-01-25T10:24:52;13.00;99.90
31038;DHT22;17702;47.590;7.666;2024-01-25T10:27:21;13.00;99.90
31038;DHT22;17702;47.590;7.666;2024-01-25T10:29:49;13.10;99.90
31038;DHT22;17702;47.590;7.666;2024-01-25T10:32:14;13.20;99.90
31038;DHT22;17702;47.590;7.666;2024-01-25T10:34:41;13.10;99.90
31038;DHT22;17702;47.590;7.666;2024-01-25T10:37:08;13.10;99.90
31038;DHT22;17702;47.590;7.666;2024-01-25T10:39:34;13.10;99.90
31038;DHT22;17702;47.590;7.666;2024-01-25T10:42:00;13.10;99.90
31038;DHT22;17702;47.590;7.666;2024-01-25T10:44:26;13.00;99.90
31038;DHT22;17702;47.590;7.666;2024-01-25T10:46:52;13.00;99.90
31038;DHT22;17702;47.590;7.666;2024-01-25T10:49:19;13.00;99.90
31038;DHT22;17702;47.590;7.666;2024-01-25T10:51:46;13.10;99.90
31038;DHT22;17702;47.590;7.666;2024-01-25T10:54:12;13.10;99.90
31038;DHT22;17702;47.590;7.666;2024-01-25T10:56:41;13.10;99.90
31038;DHT22;17702;47.590;7.666;2024-01-25T10:59:07;13.10;99.90
31038;DHT22;17702;47.590;7.666;2024-01-25T11:01:34;13.20;99.90
31038;DHT22;17702;47.590;7.666;2024-01-25T11:04:00;13.20;99.90
31038;DHT22;17702;47.590;7.666;2024-01-25T11:06:27;13.30;99.90
31038;DHT22;17702;47.590;7.666;2024-01-25T11:09:04;13.30;99.90
31038;DHT22;17702;47.590;7.666;2024-01-25T11:11:31;13.20;99.90
31038;DHT22;17702;47.590;7.666;2024-01-25T11:13:57;13.20;99.90
31038;DHT22;17702;47.590;7.666;2024-01-25T11:16:31;13.40;99.90
31038;DHT22;17702;47.590;7.666;2024-01-25T11:18:58;13.20;99.90
31038;DHT22;17702;47.590;7.666;2024-01-25T11:21:50;13.20;99.90
31038;DHT22;17702;47.590;7.666;2024-01-25T11:26:46;13.10;99.90
31038;DHT22;17702;47.590;7.666;2024-01-25T11:29:16;13.10;99.90
31038;DHT22;17702;47.590;7.666;2024-01-25T11:31:46;13.10;99.90
31038;DHT22;17702;47.590;7.666;2024-01-25T11:34:12;13.10;99.90
31038;DHT22;17702;47.590;7.666;2024-01-25T11:36:38;13.10;99.90
31038;DHT22;17702;47.590;7.666;2024-01-25T11:39:04;13.20;99.90
31038;DHT22;17702;47.590;7.666;2024-01-25T11:41:31;13.20;99.90
31038;DHT22;17702;47.590;7.666;2024-01-25T11:43:57;13.20;99.90
31038;DHT22;17702;47.590;7.666;2024-01-25T11:46:23;13.30;99.90
31038;DHT22;17702;47.590;7.666;2024-01-25T11:48:50;13.30;99.90
31038;DHT22;17702;47.590;7.666;2024-01-25T11:51:15;13.40;99.90
31038;DHT22;17702;47.590;7.666;2024-01-25T11:53:41;13.40;99.90
31038;DHT22;17702;47.590;7.666;2024-01-25T11:56:09;13.50;99.90
31038;DHT22;17702;47.590;7.666;2024-01-25T11:58:37;13.60;99.90
31038;DHT22;17702;47.590;7.666;2024-01-25T12:01:03;13.60;99.90
31038;DHT22;17702;47.590;7.666;2024-01-25T12:03:32;13.70;99.90
31038;DHT22;17702;47.590;7.666;2024-01-25T12:05:58;13.70;99.90
31038;DHT22;17702;47.590;7.666;2024-01-25T12:08:24;13.70;99.90
31038;DHT22;17702;47.590;7.666;2024-01-25T12:10:50;13.70;99.90
31038;DHT22;17702;47.590;7.666;2024-01-25T12:13:16;13.70;99.90
31038;DHT22;17702;47.590;7.666;2024-01-25T12:15:42;13.80;99.90
31038;DHT22;17702;47.590;7.666;2024-01-25T12:18:07;13.80;99.90
31038;DHT22;17702;47.590;7.666;2024-01-25T12:20:35;13.70;99.90
31038;DHT22;17702;47.590;7.666;2024-01-25T12:23:02;13.80;99.90
31038;DHT22;17702;47.590;7.666;2024-01-25T12:25:27;13.80;99.90
31038;DHT22;17702;47.590;7.666;2024-01-25T12:27:53;13.80;99.90
31038;DHT22;17702;47.590;7.666;2024-01-25T12:30:19;13.70;99.90
31038;DHT22;17702;47.590;7.666;2024-01-25T12:32:47;13.80;99.90
31038;DHT22;17702;47.590;7.666;2024-01-25T12:35:13;13.80;99.90
31038;DHT22;17702;47.590;7.666;2024-01-25T12:37:39;13.80;99.90
31038;DHT22;17702;47.590;7.666;2024-01-25T12:40:05;13.80;99.90
31038;DHT22;17702;47.590;7.666;2024-01-25T12:42:31;13.80;99.90
31038;DHT22;17702;47.590;7.666;2024-01-25T12:44:56;13.80;99.90
31038;DHT22;17702;47.590;7.666;2024-01-25T12:47:22;13.80;99.90
31038;DHT22;17702;47.590;7.666;2024-01-25T12:49:47;13.90;99.90
31038;DHT22;17702;47.590;7.666;2024-01-25T12:52:14;13.80;99.90
31038;DHT22;17702;47.590;7.666;2024-01-25T12:54:40;13.80;99.90
31038;DHT22;17702;47.590;7.666;2024-01-25T12:57:06;13.80;99.90
31038;DHT22;17702;47.590;7.666;2024-01-25T12:59:35;13.80;99.90
31038;DHT22;17702;47.590;7.666;2024-01-25T13:02:01;13.80;99.90
31038;DHT22;17702;47.590;7.666;2024-01-25T13:04:27;13.80;99.90
31038;DHT22;17702;47.590;7.666;2024-01-25T13:06:54;13.80;99.90
31038;DHT22;17702;47.590;7.666;2024-01-25T13:09:23;13.80;99.90
31038;DHT22;17702;47.590;7.666;2024-01-25T13:11:49;13.80;99.90
31038;DHT22;17702;47.590;7.666;2024-01-25T13:14:15;13.80;99.90
31038;DHT22;17702;47.590;7.666;2024-01-25T13:16:41;13.90;99.90
31038;DHT22;17702;47.590;7.666;2024-01-25T13:19:07;13.90;99.90
31038;DHT22;17702;47.590;7.666;2024-01-25T13:21:32;13.90;99.90
31038;DHT22;17702;47.590;7.666;2024-01-25T13:24:01;14.00;99.90
31038;DHT22;17702;47.590;7.666;2024-01-25T13:26:27;14.00;99.90
31038;DHT22;17702;47.590;7.666;2024-01-25T13:28:52;14.10;99.90
31038;DHT22;17702;47.590;7.666;2024-01-25T13:31:18;14.10;99.90
31038;DHT22;17702;47.590;7.666;2024-01-25T13:33:44;14.10;99.90
31038;DHT22;17702;47.590;7.666;2024-01-25T13:36:11;14.10;99.90
31038;DHT22;17702;47.590;7.666;2024-01-25T13:38:40;14.20;99.90
31038;DHT22;17702;47.590;7.666;2024-01-25T13:41:06;14.20;99.90
31038;DHT22;17702;47.590;7.666;2024-01-25T13:43:31;14.20;99.90
31038;DHT22;17702;47.590;7.666;2024-01-25T13:45:57;14.20;99.90
31038;DHT22;17702;47.590;7.666;2024-01-25T13:48:23;14.20;99.90
31038;DHT22;17702;47.590;7.666;2024-01-25T13:50:48;14.10;99.90
31038;DHT22;17702;47.590;7.666;2024-01-25T13:53:14;14.20;99.90
31038;DHT22;17702;47.590;7.666;2024-01-25T13:55:40;14.20;99.90
31038;DHT22;17702;47.590;7.666;2024-01-25T13:58:06;14.20;99.90
31038;DHT22;17702;47.590;7.666;2024-01-25T14:00:31;14.10;99.90
31038;DHT22;17702;47.590;7.666;2024-01-25T14:02:57;14.20;99.90
31038;DHT22;17702;47.590;7.666;2024-01-25T14:05:23;14.20;99.90
31038;DHT22;17702;47.590;7.666;2024-01-25T14:07:48;14.30;99.90
31038;DHT22;17702;47.590;7.666;2024-01-25T14:10:14;14.30;99.90
31038;DHT22;17702;47.590;7.666;2024-01-25T14:12:39;14.30;99.90
31038;DHT22;17702;47.590;7.666;2024-01-25T14:15:05;14.30;99.90
31038;DHT22;17702;47.590;7.666;2024-01-25T14:17:31;14.30;99.90
31038;DHT22;17702;47.590;7.666;2024-01-25T14:19:57;14.40;99.90
31038;DHT22;17702;47.590;7.666;2024-01-25T14:22:22;14.40;99.90
31038;DHT22;17702;47.590;7.666;2024-01-25T14:24:48;14.40;99.90
31038;DHT22;17702;47.590;7.666;2024-01-25T14:27:13;14.50;99.90
31038;DHT22;17702;47.590;7.666;2024-01-25T14:29:39;14.50;99.90
31038;DHT22;17702;47.590;7.666;2024-01-25T14:32:05;14.50;99.90
31038;DHT22;17702;47.590;7.666;2024-01-25T14:34:30;14.50;99.90
31038;DHT22;17702;47.590;7.666;2024-01-25T14:36:56;14.50;99.90
31038;DHT22;17702;47.590;7.666;2024-01-25T14:39:21;14.50;99.90
31038;DHT22;17702;47.590;7.666;2024-01-25T14:41:47;14.40;99.90
31038;DHT22;17702;47.590;7.666;2024-01-25T14:44:13;14.40;99.90
31038;DHT22;17702;47.590;7.666;2024-01-25T14:46:39;14.40;99.90
31038;DHT22;17702;47.590;7.666;2024-01-25T14:49:04;14.40;99.90
31038;DHT22;17702;47.590;7.666;2024-01-25T14:51:30;14.30;99.90
31038;DHT22;17702;47.590;7.666;2024-01-25T14:53:56;14.30;99.90
31038;DHT22;17702;47.590;7.666;2024-01-25T14:56:22;14.30;99.90
31038;DHT22;17702;47.590;7.666;2024-01-25T14:58:48;14.30;99.90
31038;DHT22;17702;47.590;7.666;2024-01-25T15:01:14;14.40;99.90
31038;DHT22;17702;47.590;7.666;2024-01-25T15:03:43;14.40;99.90
31038;DHT22;17702;47.590;7.666;2024-01-25T15:06:09;14.30;99.90
31038;DHT22;17702;47.590;7.666;2024-01-25T15:08:35;14.30;99.90
31038;DHT22;17702;47.590;7.666;2024-01-25T15:11:00;14.30;99.90
31038;DHT22;17702;47.590;7.666;2024-01-25T15:13:26;14.20;99.90
31038;DHT22;17702;47.590;7.666;2024-01-25T15:15:52;14.20;99.90
31038;DHT22;17702;47.590;7.666;2024-01-25T15:18:17;14.10;99.90
31038;DHT22;17702;47.590;7.666;2024-01-25T15:20:43;14.10;99.90
31038;DHT22;17702;47.590;7.666;2024-01-25T15:23:09;14.10;99.90
31038;DHT22;17702;47.590;7.666;2024-01-25T15:25:34;14.10;99.90
31038;DHT22;17702;47.590;7.666;2024-01-25T15:28:00;14.10;99.90